Weather at El Dorado International Airport

Public forecast

Using degrees Celsius for public forecast. Weather courtesy of forecast.io.

Current aviation weather report (METAR) for El Dorado International Airport

Report is more than 6 hours old.

2022/11/14 15:00 (retrieved 2 years ago)

SKBO 141500Z 08004KT 010V130 9999 FEW020 19/12 Q1027 NOSIG

Aviation forecast (TAF) for El Dorado International Airport

Forecast is more than 12 hours old.

2023/02/22 18:00 (retrieved 1 year ago)

TAF SKBO 221630Z 2218/2318 31008KT 9999 SCT020 TEMPO 2221/2224 DZ SCT017TCU BECMG 2301/2303 VRB02KT SCT015 PROB40 TEMPO 2309/2311 5000 BCFG SCT010 TX18/2218Z TN10/2310Z